createdAt,value
2019-04-21T00:00:54.065Z,0
2019-04-21T00:01:51.023Z,0
2019-04-21T00:02:50.446Z,0
2019-04-21T00:03:53.615Z,0
2019-04-21T00:05:03.195Z,0
2019-04-21T00:06:08.649Z,0
2019-04-21T00:07:08.239Z,0
2019-04-21T00:08:17.816Z,0
2019-04-21T00:09:10.840Z,0
2019-04-21T00:10:11.604Z,0
2019-04-21T00:11:15.029Z,0
2019-04-21T00:12:07.100Z,0
2019-04-21T00:13:01.681Z,0
2019-04-21T00:14:00.846Z,0
2019-04-21T00:15:01.613Z,0
2019-04-21T00:15:54.823Z,0
2019-04-21T00:16:55.945Z,0
2019-04-21T00:17:54.710Z,0
2019-04-21T00:18:57.954Z,0
2019-04-21T00:19:50.109Z,0
2019-04-21T00:20:55.111Z,0
2019-04-21T00:21:55.216Z,0
2019-04-21T00:23:02.713Z,0
2019-04-21T00:24:04.750Z,0
2019-04-21T00:25:07.581Z,0
2019-04-21T00:26:00.163Z,0
2019-04-21T00:27:09.526Z,0
2019-04-21T00:28:13.834Z,0
2019-04-21T00:29:16.196Z,0
2019-04-21T00:30:10.575Z,0
2019-04-21T00:31:09.683Z,0
2019-04-21T00:32:05.121Z,0
2019-04-21T00:32:59.633Z,0
2019-04-21T00:33:51.897Z,0
2019-04-21T00:34:58.917Z,0
2019-04-21T00:35:59.554Z,0
2019-04-21T00:37:02.934Z,0
2019-04-21T00:38:11.760Z,0
2019-04-21T00:39:20.509Z,0
2019-04-21T00:40:27.031Z,0
2019-04-21T00:41:13.071Z,0
2019-04-21T00:42:09.652Z,0
2019-04-21T00:43:07.452Z,0
2019-04-21T00:44:03.948Z,0
2019-04-21T00:45:07.787Z,0
2019-04-21T00:46:02.889Z,0
2019-04-21T00:47:05.045Z,0
2019-04-21T00:48:16.390Z,0
2019-04-21T00:49:05.441Z,0
2019-04-21T00:50:10.509Z,0
2019-04-21T00:51:24.790Z,0
2019-04-21T00:52:20.700Z,0
2019-04-21T00:53:10.180Z,0
2019-04-21T00:54:16.491Z,0
2019-04-21T00:55:32.102Z,0
2019-04-21T00:56:15.116Z,0
2019-04-21T00:57:16.225Z,0
2019-04-21T00:58:17.039Z,0
2019-04-21T00:59:13.467Z,0
2019-04-21T01:00:17.606Z,0
2019-04-21T01:01:14.632Z,0
2019-04-21T01:02:08.894Z,0
2019-04-21T01:03:14.059Z,0
2019-04-21T01:04:15.122Z,0
2019-04-21T01:05:16.321Z,0
2019-04-21T01:06:15.867Z,0
2019-04-21T01:07:12.265Z,0
2019-04-21T01:08:12.748Z,0
2019-04-21T01:09:07.457Z,0
2019-04-21T01:10:05.083Z,0
2019-04-21T01:11:15.139Z,0
2019-04-21T01:12:12.097Z,0
2019-04-21T01:13:15.771Z,0
2019-04-21T01:14:19.753Z,0
2019-04-21T01:15:18.153Z,0
2019-04-21T01:16:20.134Z,0
2019-04-21T01:17:17.742Z,0
2019-04-21T01:18:16.123Z,0
2019-04-21T01:19:10.357Z,0
2019-04-21T01:20:06.149Z,0
2019-04-21T01:20:53.394Z,0
2019-04-21T01:21:53.527Z,0
2019-04-21T01:22:53.684Z,0
2019-04-21T01:23:55.548Z,0
2019-04-21T01:25:04.203Z,0
2019-04-21T01:26:06.171Z,0
2019-04-21T01:27:04.092Z,0
2019-04-21T01:28:09.759Z,0
2019-04-21T01:29:11.686Z,0
2019-04-21T01:30:16.168Z,0
2019-04-21T01:31:13.013Z,0
2019-04-21T01:32:17.615Z,0
2019-04-21T01:33:12.164Z,0
2019-04-21T01:34:14.602Z,0
2019-04-21T01:35:14.470Z,0
2019-04-21T01:36:13.883Z,0
2019-04-21T01:37:10.004Z,0
2019-04-21T01:38:13.694Z,0
2019-04-21T01:39:34.036Z,0
2019-04-21T01:40:22.493Z,0
2019-04-21T01:41:19.693Z,0
2019-04-21T01:42:15.582Z,0
2019-04-21T01:43:13.236Z,0
2019-04-21T01:44:12.002Z,0
2019-04-21T01:45:14.453Z,0
2019-04-21T01:46:13.753Z,0
2019-04-21T01:47:09.960Z,0
2019-04-21T01:48:08.891Z,0
2019-04-21T01:49:07.636Z,0
2019-04-21T01:50:04.270Z,0
2019-04-21T01:51:08.376Z,0
2019-04-21T01:53:17.135Z,0
2019-04-21T01:55:17.551Z,0
2019-04-21T01:56:16.690Z,0
2019-04-21T01:57:12.197Z,0
2019-04-21T01:58:05.784Z,0
2019-04-21T01:59:03.351Z,0
2019-04-21T02:00:04.377Z,0
2019-04-21T02:01:08.380Z,0
2019-04-21T02:02:16.899Z,0
2019-04-21T02:03:33.832Z,0
2019-04-21T02:04:23.819Z,0
2019-04-21T02:05:16.794Z,0
2019-04-21T02:06:16.963Z,0
2019-04-21T02:07:14.465Z,0
2019-04-21T02:08:14.627Z,0
2019-04-21T02:09:14.529Z,0
2019-04-21T02:10:17.459Z,0
2019-04-21T02:11:16.729Z,0
2019-04-21T02:12:18.647Z,0
2019-04-21T02:13:11.592Z,0
2019-04-21T02:14:14.552Z,0
2019-04-21T02:16:16.767Z,0
2019-04-21T02:17:15.971Z,0
2019-04-21T02:18:16.812Z,0
2019-04-21T02:19:12.425Z,0
2019-04-21T02:20:06.409Z,0
2019-04-21T02:21:03.569Z,0
2019-04-21T02:22:18.973Z,0
2019-04-21T02:23:26.154Z,0
2019-04-21T02:24:20.263Z,0
2019-04-21T02:25:19.619Z,0
2019-04-21T02:26:15.911Z,0
2019-04-21T02:27:18.762Z,0
2019-04-21T02:28:19.148Z,0
2019-04-21T02:29:20.419Z,0
2019-04-21T02:30:26.975Z,0
2019-04-21T02:31:26.330Z,0
2019-04-21T02:32:24.073Z,0
2019-04-21T02:33:35.921Z,0
2019-04-21T02:34:23.328Z,0
2019-04-21T02:36:39.295Z,0
2019-04-21T02:37:36.479Z,0
2019-04-21T02:38:29.520Z,0
2019-04-21T02:40:29.211Z,0
2019-04-21T02:41:30.451Z,0
2019-04-21T02:42:26.179Z,0
2019-04-21T02:43:44.279Z,0
2019-04-21T02:44:26.214Z,0
2019-04-21T02:46:31.090Z,0
2019-04-21T02:47:36.532Z,0
2019-04-21T02:48:27.621Z,0
2019-04-21T02:49:34.224Z,0
2019-04-21T02:50:25.730Z,0
2019-04-21T02:53:38.938Z,0
2019-04-21T02:55:28.257Z,0
2019-04-21T02:56:41.827Z,0
2019-04-21T02:58:34.196Z,0
2019-04-21T03:00:29.672Z,0
2019-04-21T03:01:30.912Z,0
2019-04-21T03:02:33.376Z,0
2019-04-21T03:03:27.412Z,0
2019-04-21T03:04:34.100Z,0
2019-04-21T03:06:28.717Z,0
2019-04-21T03:08:33.491Z,0
2019-04-21T03:10:34.554Z,0
2019-04-21T03:11:23.730Z,0
2019-04-21T03:12:21.899Z,0
2019-04-21T03:14:35.360Z,0
2019-04-21T03:16:25.677Z,0
2019-04-21T03:17:28.935Z,0
2019-04-21T03:19:35.666Z,0
2019-04-21T03:20:33.180Z,0
2019-04-21T03:21:28.199Z,0
2019-04-21T03:22:23.812Z,0
2019-04-21T03:23:27.404Z,0
2019-04-21T03:24:39.535Z,0
2019-04-21T03:26:47.854Z,0
2019-04-21T03:27:39.458Z,0
2019-04-21T03:28:29.502Z,0
2019-04-21T03:29:34.633Z,0
2019-04-21T03:30:55.258Z,0
2019-04-21T03:31:49.105Z,0
2019-04-21T03:33:07.938Z,0
2019-04-21T03:34:14.571Z,0
2019-04-21T03:36:46.981Z,0
2019-04-21T03:38:36.489Z,0
2019-04-21T03:39:28.430Z,0
2019-04-21T03:40:25.296Z,0
2019-04-21T03:41:28.593Z,0
2019-04-21T03:42:33.522Z,0
2019-04-21T03:43:26.627Z,1
2019-04-21T03:44:29.917Z,1
2019-04-21T03:45:38.439Z,0
2019-04-21T03:47:42.859Z,1
2019-04-21T03:50:32.932Z,1
2019-04-21T03:54:35.768Z,3
2019-04-21T03:56:50.747Z,3
2019-04-21T03:57:45.712Z,4
2019-04-21T03:59:24.009Z,5
2019-04-21T04:01:21.394Z,8
2019-04-21T04:02:32.515Z,9
2019-04-21T04:04:33.867Z,13
2019-04-21T04:05:47.637Z,15
2019-04-21T04:06:32.276Z,17
2019-04-21T04:08:43.295Z,23
2019-04-21T04:09:36.608Z,27
2019-04-21T04:10:31.041Z,31
2019-04-21T04:13:36.513Z,46
2019-04-21T04:14:30.534Z,53
2019-04-21T04:15:38.024Z,60
2019-04-21T04:18:45.870Z,84
2019-04-21T04:20:42.170Z,103
2019-04-21T04:22:47.920Z,124
2019-04-21T04:23:40.024Z,137
2019-04-21T04:24:38.646Z,153
2019-04-21T04:25:24.978Z,164
2019-04-21T04:26:31.255Z,177
2019-04-21T04:27:37.626Z,195
2019-04-21T04:30:37.668Z,237
2019-04-21T04:34:40.233Z,317
2019-04-21T04:35:41.941Z,335
2019-04-21T04:36:42.367Z,357
2019-04-21T04:38:37.582Z,400
2019-04-21T04:39:42.548Z,425
2019-04-21T04:40:30.474Z,430
2019-04-21T04:41:52.480Z,456
2019-04-21T04:42:38.831Z,495
2019-04-21T04:43:32.652Z,498
2019-04-21T04:45:43.807Z,542
2019-04-21T04:46:43.610Z,589
2019-04-21T04:47:32.261Z,580
2019-04-21T04:48:34.718Z,618
2019-04-21T04:49:43.019Z,641
2019-04-21T04:50:38.947Z,650
2019-04-21T04:51:43.619Z,684
2019-04-21T04:52:36.028Z,726
2019-04-21T04:53:39.561Z,712
2019-04-21T04:55:33.008Z,793
2019-04-21T04:58:59.234Z,848
2019-04-21T04:59:42.220Z,872
2019-04-21T05:00:53.531Z,903
2019-04-21T05:04:44.923Z,972
2019-04-21T05:05:55.319Z,1013
2019-04-21T05:06:45.721Z,1036
2019-04-21T05:08:52.185Z,1030
2019-04-21T05:10:47.115Z,1106
2019-04-21T05:11:43.983Z,1142
2019-04-21T05:12:35.522Z,1149
2019-04-21T05:13:32.975Z,1150
2019-04-21T05:14:38.218Z,1188
2019-04-21T05:15:41.378Z,1242
2019-04-21T05:18:43.319Z,1240
2019-04-21T05:19:29.910Z,1261
2019-04-21T05:20:27.926Z,1292
2019-04-21T05:22:34.835Z,1355
2019-04-21T05:23:31.042Z,1381
2019-04-21T05:24:22.868Z,1392
2019-04-21T05:25:22.799Z,1421
2019-04-21T05:26:21.241Z,1419
2019-04-21T05:27:20.192Z,1442
2019-04-21T05:28:18.365Z,1457
2019-04-21T05:29:19.251Z,1489
2019-04-21T05:30:33.673Z,1479
2019-04-21T05:31:31.071Z,1485
2019-04-21T05:32:31.797Z,1497
2019-04-21T05:33:32.011Z,1567
2019-04-21T05:34:30.350Z,1576
2019-04-21T05:35:31.988Z,1589
2019-04-21T05:36:27.602Z,1616
2019-04-21T05:37:28.361Z,1634
2019-04-21T05:38:27.061Z,1670
2019-04-21T05:39:22.977Z,1668
2019-04-21T05:40:21.783Z,1660
2019-04-21T05:41:20.486Z,1686
2019-04-21T05:42:23.565Z,1705
2019-04-21T05:43:32.093Z,1707
2019-04-21T05:44:34.602Z,1749
2019-04-21T05:45:47.117Z,1794
2019-04-21T05:46:31.287Z,1805
2019-04-21T05:47:32.951Z,1825
2019-04-21T05:48:34.907Z,1848
2019-04-21T05:49:26.227Z,1870
2019-04-21T05:50:26.339Z,1879
2019-04-21T05:51:23.564Z,1887
2019-04-21T05:52:26.292Z,1875
2019-04-21T05:54:38.551Z,1886
2019-04-21T05:56:34.966Z,1957
2019-04-21T05:57:28.710Z,1968
2019-04-21T05:58:31.404Z,1976
2019-04-21T05:59:31.263Z,1967
2019-04-21T06:00:52.454Z,2010
2019-04-21T06:01:46.159Z,2033
2019-04-21T06:02:49.350Z,2071
2019-04-21T06:03:36.589Z,2097
2019-04-21T06:04:46.688Z,2129
2019-04-21T06:06:32.120Z,2154
2019-04-21T06:07:33.181Z,2158
2019-04-21T06:08:30.686Z,2155
2019-04-21T06:09:34.719Z,2150
2019-04-21T06:10:34.497Z,2167
2019-04-21T06:11:30.206Z,2194
2019-04-21T06:12:32.590Z,2213
2019-04-21T06:13:42.579Z,2222
2019-04-21T06:14:36.552Z,2253
2019-04-21T06:15:35.890Z,2254
2019-04-21T06:16:35.585Z,2272
2019-04-21T06:17:34.645Z,2284
2019-04-21T06:18:41.960Z,2289
2019-04-21T06:19:36.423Z,2320
2019-04-21T06:20:33.229Z,2319
2019-04-21T06:21:32.954Z,2355
2019-04-21T06:22:28.681Z,2363
2019-04-21T06:23:35.815Z,2388
2019-04-21T06:24:41.994Z,2388
2019-04-21T06:25:48.400Z,2403
2019-04-21T06:27:50.600Z,2450
2019-04-21T06:28:39.890Z,2510
2019-04-21T06:29:35.992Z,2510
2019-04-21T06:30:38.893Z,2535
2019-04-21T06:32:00.716Z,2527
2019-04-21T06:32:46.565Z,2498
2019-04-21T06:33:40.171Z,2463
2019-04-21T06:34:47.029Z,2481
2019-04-21T06:35:48.103Z,2508
2019-04-21T06:36:42.117Z,2591
2019-04-21T06:37:42.981Z,2596
2019-04-21T06:38:42.967Z,2589
2019-04-21T06:40:42.072Z,2594
2019-04-21T06:41:33.730Z,2608
2019-04-21T06:42:39.996Z,2635
2019-04-21T06:43:39.750Z,2679
2019-04-21T06:44:38.614Z,2719
2019-04-21T06:45:39.636Z,2740
2019-04-21T06:46:39.118Z,2772
2019-04-21T06:47:41.930Z,2736
2019-04-21T06:48:40.357Z,2759
2019-04-21T06:49:36.723Z,2794
2019-04-21T06:50:39.390Z,2811
2019-04-21T06:51:35.539Z,2829
2019-04-21T06:53:44.200Z,2865
2019-04-21T06:54:39.860Z,2881
2019-04-21T06:55:36.857Z,2908
2019-04-21T06:56:40.812Z,2937
2019-04-21T06:57:38.571Z,2965
2019-04-21T06:58:35.384Z,2943
2019-04-21T06:59:38.200Z,2923
2019-04-21T07:00:35.664Z,2947
2019-04-21T07:01:42.019Z,2988
2019-04-21T07:03:01.034Z,3028
2019-04-21T07:03:40.046Z,3084
2019-04-21T07:04:54.181Z,3105
2019-04-21T07:05:40.525Z,3123
2019-04-21T07:06:42.310Z,3112
2019-04-21T07:07:43.035Z,3126
2019-04-21T07:08:44.165Z,3117
2019-04-21T07:09:35.545Z,3118
2019-04-21T07:10:36.667Z,3123
2019-04-21T07:11:36.516Z,3157
2019-04-21T07:12:38.766Z,3194
2019-04-21T07:13:36.238Z,3189
2019-04-21T07:14:52.505Z,3223
2019-04-21T07:15:43.273Z,3227
2019-04-21T07:16:44.535Z,3242
2019-04-21T07:17:38.565Z,3262
2019-04-21T07:18:40.887Z,3258
2019-04-21T07:19:47.830Z,3268
2019-04-21T07:20:42.072Z,3295
2019-04-21T07:21:38.139Z,3329
2019-04-21T07:22:41.364Z,3328
2019-04-21T07:23:45.678Z,3363
2019-04-21T07:24:42.637Z,3396
2019-04-21T07:25:45.380Z,3402
2019-04-21T07:26:42.194Z,3431
2019-04-21T07:27:41.090Z,3440
2019-04-21T07:28:47.510Z,3464
2019-04-21T07:29:47.244Z,3453
2019-04-21T07:30:43.441Z,3485
2019-04-21T07:31:46.757Z,3529
2019-04-21T07:32:39.863Z,3539
2019-04-21T07:33:53.228Z,3561
2019-04-21T07:34:44.509Z,3652
2019-04-21T07:35:42.969Z,3668
2019-04-21T07:36:50.756Z,3654
2019-04-21T07:37:40.394Z,3649
2019-04-21T07:38:39.050Z,3640
2019-04-21T07:39:38.633Z,3655
2019-04-21T07:40:33.090Z,3646
2019-04-21T07:41:36.580Z,3634
2019-04-21T07:42:37.819Z,3604
2019-04-21T07:43:37.870Z,3605
2019-04-21T07:44:34.790Z,3665
2019-04-21T07:45:34.909Z,3695
2019-04-21T07:46:33.569Z,3718
2019-04-21T07:47:39.312Z,3730
2019-04-21T07:48:42.801Z,3741
2019-04-21T07:49:46.073Z,3765
2019-04-21T07:50:37.997Z,3774
2019-04-21T07:51:45.073Z,3779
2019-04-21T07:52:48.369Z,3786
2019-04-21T07:53:49.228Z,3883
2019-04-21T07:54:44.093Z,4008
2019-04-21T07:56:27.327Z,4014
2019-04-21T07:57:37.456Z,4067
2019-04-21T07:58:45.326Z,4081
2019-04-21T08:01:43.697Z,4301
2019-04-21T08:02:48.965Z,4332
2019-04-21T08:03:45.175Z,4355
2019-04-21T08:04:50.899Z,4372
2019-04-21T08:05:45.577Z,4453
2019-04-21T08:06:45.909Z,4545
2019-04-21T08:07:51.749Z,4589
2019-04-21T08:08:40.578Z,4639
2019-04-21T08:09:40.614Z,7084
2019-04-21T08:10:37.624Z,25120
2019-04-21T08:11:35.403Z,38592
2019-04-21T08:12:41.795Z,41272
2019-04-21T08:13:56.024Z,40360
2019-04-21T08:14:42.693Z,37152
2019-04-21T08:15:43.912Z,33728
2019-04-21T08:16:44.263Z,32888
2019-04-21T08:17:40.981Z,35800
2019-04-21T08:18:45.132Z,34272
2019-04-21T08:19:42.382Z,32496
2019-04-21T08:20:41.712Z,34320
2019-04-21T08:21:49.458Z,42328
2019-04-21T08:22:46.218Z,33184
2019-04-21T08:23:41.221Z,18584
2019-04-21T08:24:41.961Z,20632
2019-04-21T08:25:52.745Z,16288
2019-04-21T08:26:41.284Z,23624
2019-04-21T08:27:47.554Z,21552
2019-04-21T08:28:45.402Z,15808
2019-04-21T08:29:45.834Z,26872
2019-04-21T08:30:42.354Z,33704
2019-04-21T08:31:55.736Z,39208
2019-04-21T08:32:51.090Z,39376
2019-04-21T08:33:52.355Z,22256
2019-04-21T08:34:53.689Z,13163
2019-04-21T08:36:44.422Z,11960
2019-04-21T08:37:42.811Z,10091
2019-04-21T08:38:47.721Z,7052
2019-04-21T08:39:54.764Z,5697
2019-04-21T08:40:40.572Z,6759
2019-04-21T08:41:43.655Z,12086
2019-04-21T08:42:44.530Z,15920
2019-04-21T08:43:44.415Z,15624
2019-04-21T08:44:46.499Z,12702
2019-04-21T08:45:46.596Z,14448
2019-04-21T08:46:45.890Z,10329
2019-04-21T08:47:45.618Z,8238
2019-04-21T08:48:49.306Z,10211
2019-04-21T08:49:46.933Z,10961
2019-04-21T08:50:43.006Z,10928
2019-04-21T08:51:48.115Z,13064
2019-04-21T08:52:48.677Z,13805
2019-04-21T08:54:46.664Z,9708
2019-04-21T08:55:48.716Z,12096
2019-04-21T08:56:46.475Z,11662
2019-04-21T08:57:58.036Z,10054
2019-04-21T08:58:49.478Z,7726
2019-04-21T08:59:50.454Z,13211
2019-04-21T09:00:46.614Z,17296
2019-04-21T09:01:48.469Z,25952
2019-04-21T09:02:46.239Z,22560
2019-04-21T09:03:49.029Z,15463
2019-04-21T09:04:45.668Z,13699
2019-04-21T09:05:49.171Z,14505
2019-04-21T09:06:58.444Z,24360
2019-04-21T09:07:50.721Z,19880
2019-04-21T09:08:45.430Z,15190
2019-04-21T09:09:46.588Z,13167
2019-04-21T09:10:46.614Z,30080
2019-04-21T09:11:47.021Z,40344
2019-04-21T09:12:45.977Z,47312
2019-04-21T09:13:47.511Z,23584
2019-04-21T09:14:48.594Z,9449
2019-04-21T09:15:41.394Z,13752
2019-04-21T09:16:40.552Z,10833
2019-04-21T09:17:40.713Z,10169
2019-04-21T09:18:40.294Z,10604
2019-04-21T09:20:51.989Z,8308
2019-04-21T09:21:49.777Z,7682
2019-04-21T09:22:47.554Z,11725
2019-04-21T09:23:44.460Z,16720
2019-04-21T09:24:45.249Z,33256
2019-04-21T09:25:52.143Z,51392
2019-04-21T09:26:45.853Z,52040
2019-04-21T09:27:46.563Z,37376
2019-04-21T09:28:39.284Z,29072
2019-04-21T09:29:36.500Z,34064
2019-04-21T09:30:30.634Z,25776
2019-04-21T09:31:36.422Z,12350
2019-04-21T09:32:32.934Z,11038
2019-04-21T09:33:33.321Z,8526
2019-04-21T09:34:36.050Z,11442
2019-04-21T09:35:31.398Z,11270
2019-04-21T09:36:37.700Z,16384
2019-04-21T09:37:40.596Z,16392
2019-04-21T09:38:36.986Z,14781
2019-04-21T09:39:32.954Z,12945
2019-04-21T09:40:37.069Z,6994
2019-04-21T09:41:34.319Z,8314
2019-04-21T09:42:35.830Z,12787
2019-04-21T09:43:39.878Z,15638
2019-04-21T09:44:36.499Z,20808
2019-04-21T09:45:30.829Z,24616
2019-04-21T09:46:34.032Z,15245
2019-04-21T09:47:40.057Z,13897
2019-04-21T09:48:44.169Z,12712
2019-04-21T09:49:33.193Z,10645
2019-04-21T09:50:31.785Z,10238
2019-04-21T09:51:32.443Z,7529
2019-04-21T09:52:39.590Z,6105
2019-04-21T09:53:36.340Z,9306
2019-04-21T09:54:35.202Z,7844
2019-04-21T09:55:41.906Z,6826
2019-04-21T09:56:41.342Z,8780
2019-04-21T09:57:41.052Z,12511
2019-04-21T09:58:38.372Z,25400
2019-04-21T09:59:36.967Z,30232
2019-04-21T10:00:43.285Z,6314
2019-04-21T10:01:44.590Z,19311
2019-04-21T10:02:37.250Z,17218
2019-04-21T10:03:35.845Z,12070
2019-04-21T10:04:33.569Z,15440
2019-04-21T10:05:31.710Z,24936
2019-04-21T10:06:32.860Z,26056
2019-04-21T10:07:35.353Z,15546
2019-04-21T10:08:32.533Z,8600
2019-04-21T10:09:33.330Z,11951
2019-04-21T10:10:31.956Z,12496
2019-04-21T10:11:31.836Z,6540
2019-04-21T10:12:33.102Z,6980
2019-04-21T10:13:31.903Z,7760
2019-04-21T10:14:32.988Z,7387
2019-04-21T10:15:33.125Z,8487
2019-04-21T10:16:32.209Z,9256
2019-04-21T10:17:33.027Z,7968
2019-04-21T10:18:33.752Z,11906
2019-04-21T10:19:39.493Z,14787
2019-04-21T10:20:32.885Z,24664
2019-04-21T10:21:33.832Z,19024
2019-04-21T10:22:33.442Z,27744
2019-04-21T10:23:33.538Z,38424
2019-04-21T10:24:33.983Z,62032
2019-04-21T10:25:34.524Z,61560
2019-04-21T10:26:33.319Z,21200
2019-04-21T10:27:32.931Z,18384
2019-04-21T10:28:33.007Z,23152
2019-04-21T10:29:34.617Z,31464
2019-04-21T10:30:34.715Z,42424
2019-04-21T10:31:34.523Z,47440
2019-04-21T10:32:34.483Z,41104
2019-04-21T10:33:34.199Z,41704
2019-04-21T10:34:33.285Z,40304
2019-04-21T10:35:33.328Z,28336
2019-04-21T10:36:33.336Z,25728
2019-04-21T10:37:44.566Z,12209
2019-04-21T10:38:40.452Z,12458
2019-04-21T10:39:35.678Z,32208
2019-04-21T10:40:35.526Z,49584
2019-04-21T10:41:35.120Z,35184
2019-04-21T10:42:35.299Z,16712
2019-04-21T10:43:35.468Z,23264
2019-04-21T10:44:34.677Z,15286
2019-04-21T10:45:34.869Z,16184
2019-04-21T10:46:34.984Z,22192
2019-04-21T10:47:36.701Z,18352
2019-04-21T10:48:36.684Z,16856
2019-04-21T10:49:34.894Z,23592
2019-04-21T10:50:34.879Z,48720
2019-04-21T10:51:35.184Z,56824
2019-04-21T10:52:35.907Z,53904
2019-04-21T10:53:34.820Z,59536
2019-04-21T10:54:48.924Z,51880
2019-04-21T10:55:48.373Z,61056
2019-04-21T10:56:40.083Z,65535
2019-04-21T10:57:36.263Z,60792
2019-04-21T10:58:36.262Z,46984
2019-04-21T10:59:35.519Z,36544
2019-04-21T11:00:36.601Z,43320
2019-04-21T11:01:36.898Z,52552
2019-04-21T11:02:36.834Z,39232
2019-04-21T11:03:36.895Z,40336
2019-04-21T11:04:38.244Z,52800
2019-04-21T11:05:37.106Z,54152
2019-04-21T11:06:36.841Z,65535
2019-04-21T11:07:52.151Z,65535
2019-04-21T11:08:41.409Z,65535
2019-04-21T11:09:37.983Z,65535
2019-04-21T11:10:36.473Z,65535
2019-04-21T11:11:37.666Z,65535
2019-04-21T11:12:39.361Z,65535
2019-04-21T11:13:38.810Z,65535
2019-04-21T11:14:36.916Z,65535
2019-04-21T11:15:37.074Z,65535
2019-04-21T11:16:37.327Z,65535
2019-04-21T11:17:40.484Z,65535
2019-04-21T11:18:38.353Z,65535
2019-04-21T11:19:38.935Z,65535
2019-04-21T11:20:37.471Z,65535
2019-04-21T11:21:38.796Z,65535
2019-04-21T11:22:38.773Z,65535
2019-04-21T11:23:38.534Z,65535
2019-04-21T11:24:38.983Z,65535
2019-04-21T11:25:37.842Z,65535
2019-04-21T11:26:37.946Z,65535
2019-04-21T11:27:38.850Z,65535
2019-04-21T11:28:38.838Z,65535
2019-04-21T11:29:39.222Z,65535
2019-04-21T11:30:38.065Z,65535
2019-04-21T11:31:38.910Z,65535
2019-04-21T11:32:39.762Z,65535
2019-04-21T11:33:39.534Z,64248
2019-04-21T11:34:38.976Z,61600
2019-04-21T11:35:39.228Z,65535
2019-04-21T11:36:38.373Z,65535
2019-04-21T11:37:39.901Z,65535
2019-04-21T11:38:54.090Z,65535
2019-04-21T11:39:48.943Z,65535
2019-04-21T11:40:39.944Z,65535
2019-04-21T11:41:39.353Z,65535
2019-04-21T11:42:39.722Z,65535
2019-04-21T11:43:39.205Z,65535
2019-04-21T11:44:41.564Z,65535
2019-04-21T11:45:40.297Z,65535
2019-04-21T11:46:40.363Z,65535
2019-04-21T11:47:40.686Z,65535
2019-04-21T11:48:41.995Z,65535
2019-04-21T11:49:41.096Z,65535
2019-04-21T11:50:41.239Z,65535
2019-04-21T11:51:40.743Z,65535
2019-04-21T11:52:41.045Z,65535
2019-04-21T11:53:41.088Z,65535
2019-04-21T11:54:41.046Z,65535
2019-04-21T11:55:44.697Z,65535
2019-04-21T11:56:41.144Z,65535
2019-04-21T11:57:44.717Z,65535
2019-04-21T11:58:41.581Z,65535
2019-04-21T11:59:41.603Z,65535
2019-04-21T12:00:40.346Z,65535
2019-04-21T12:01:41.543Z,65535
2019-04-21T12:02:41.535Z,65535
2019-04-21T12:03:41.886Z,65535
2019-04-21T12:04:41.251Z,65535
2019-04-21T12:05:41.429Z,65535
2019-04-21T12:06:44.246Z,65535
2019-04-21T12:07:43.036Z,65535
2019-04-21T12:08:46.147Z,65535
2019-04-21T12:09:42.200Z,65535
2019-04-21T12:10:41.818Z,65535
2019-04-21T12:11:41.366Z,65535
2019-04-21T12:12:41.480Z,65535
2019-04-21T12:13:42.716Z,65535
2019-04-21T12:14:43.819Z,65535
2019-04-21T12:15:43.053Z,65535
2019-04-21T12:16:43.252Z,65535
2019-04-21T12:22:01.073Z,65535
2019-04-21T12:22:52.833Z,65535
2019-04-21T12:23:50.661Z,65535
2019-04-21T12:24:51.280Z,65535
2019-04-21T12:25:51.561Z,65535
2019-04-21T12:26:51.759Z,65535
2019-04-21T12:27:52.050Z,65535
2019-04-21T12:28:51.906Z,65535
2019-04-21T12:29:51.658Z,65535
2019-04-21T12:30:51.662Z,65535
2019-04-21T12:31:51.737Z,65535
2019-04-21T12:32:51.910Z,65535
2019-04-21T12:33:51.922Z,65535
2019-04-21T12:34:52.222Z,65535
2019-04-21T12:35:51.786Z,65535
2019-04-21T12:36:52.799Z,65535
2019-04-21T12:37:53.125Z,65535
2019-04-21T12:38:56.180Z,65535
2019-04-21T12:39:54.663Z,65535
2019-04-21T12:40:54.792Z,65535
2019-04-21T12:41:52.457Z,65535
2019-04-21T12:42:52.629Z,65535
2019-04-21T12:43:52.819Z,65535
2019-04-21T12:44:55.021Z,65535
2019-04-21T15:04:51.242Z,36464
2019-04-21T15:05:51.842Z,36416
2019-04-21T15:06:51.566Z,38800
2019-04-21T15:07:55.133Z,41848
2019-04-21T15:08:51.156Z,43088
2019-04-21T15:10:02.222Z,41320
2019-04-21T15:10:52.767Z,39408
2019-04-21T15:11:51.967Z,39864
2019-04-21T15:12:51.876Z,41040
2019-04-21T15:13:51.427Z,44368
2019-04-21T15:14:51.867Z,46736
2019-04-21T15:15:52.165Z,46320
2019-04-21T15:16:54.537Z,44656
2019-04-21T15:17:53.467Z,42992
2019-04-21T15:18:52.841Z,41984
2019-04-21T15:19:59.479Z,41192
2019-04-21T15:20:53.107Z,41216
2019-04-21T15:21:52.384Z,40720
2019-04-21T15:22:52.500Z,40040
2019-04-21T15:23:54.106Z,38280
2019-04-21T15:24:54.188Z,39304
2019-04-21T15:25:54.274Z,43512
2019-04-21T15:26:53.011Z,44416
2019-04-21T15:27:52.811Z,41808
2019-04-21T15:28:52.891Z,34448
2019-04-21T15:29:52.989Z,26528
2019-04-21T15:30:52.418Z,21368
2019-04-21T15:31:52.641Z,21496
2019-04-21T15:32:52.721Z,26512
2019-04-21T15:33:52.829Z,34632
2019-04-21T15:34:52.516Z,39688
2019-04-21T15:35:53.567Z,39512
2019-04-21T15:36:53.601Z,35488
2019-04-21T15:37:53.711Z,31752
2019-04-21T15:38:54.124Z,28968
2019-04-21T15:39:53.845Z,28088
2019-04-21T15:40:57.864Z,28280
2019-04-21T15:41:54.549Z,28992
2019-04-21T15:42:52.993Z,29528
2019-04-21T15:43:54.387Z,29424
2019-04-21T15:44:54.621Z,28192
2019-04-21T15:45:53.291Z,25832
2019-04-21T15:46:53.439Z,23840
2019-04-21T15:47:53.914Z,23792
2019-04-21T15:48:55.117Z,24728
2019-04-21T15:50:00.638Z,26800
2019-04-21T15:50:54.652Z,28640
2019-04-21T15:51:55.905Z,28232
2019-04-21T15:52:55.749Z,27376
2019-04-21T15:53:53.807Z,27184
2019-04-21T15:54:54.600Z,26864
2019-04-21T15:55:55.034Z,26088
2019-04-21T15:56:56.393Z,25736
2019-04-21T15:57:56.386Z,24552
2019-04-21T15:58:56.669Z,22192
2019-04-21T15:59:54.976Z,20104
2019-04-21T16:00:54.500Z,19816
2019-04-21T16:01:54.648Z,20040
2019-04-21T16:02:54.826Z,21568
2019-04-21T16:03:57.347Z,22504
2019-04-21T16:04:56.736Z,22176
2019-04-21T16:05:55.787Z,21096
2019-04-21T16:06:55.446Z,20472
2019-04-21T16:07:56.042Z,19912
2019-04-21T16:08:57.386Z,19064
2019-04-21T16:09:56.023Z,17736
2019-04-21T16:10:59.942Z,16944
2019-04-21T16:11:56.161Z,27184
2019-04-21T16:12:55.979Z,23848
2019-04-21T16:13:55.565Z,20920
2019-04-21T16:14:56.500Z,20072
2019-04-21T16:15:56.817Z,21656
2019-04-21T16:16:57.196Z,23408
2019-04-21T16:17:57.199Z,22408
2019-04-21T16:18:56.238Z,18752
2019-04-21T16:19:56.163Z,15912
2019-04-21T16:20:55.932Z,14968
2019-04-21T16:21:56.769Z,16488
2019-04-21T16:22:56.820Z,18992
2019-04-21T16:23:56.480Z,18688
2019-04-21T16:24:56.835Z,16640
2019-04-21T16:25:56.996Z,13376
2019-04-21T16:26:56.553Z,11648
2019-04-21T16:27:57.313Z,12272
2019-04-21T16:28:57.405Z,14176
2019-04-21T16:29:57.630Z,15640
2019-04-21T16:30:58.398Z,11761
2019-04-21T16:31:57.465Z,11284
2019-04-21T16:32:57.552Z,13344
2019-04-21T16:33:56.780Z,10256
2019-04-21T16:35:02.855Z,7533
2019-04-21T16:35:58.062Z,10611
2019-04-21T16:36:57.815Z,13351
2019-04-21T16:37:58.760Z,12516
2019-04-21T16:38:57.593Z,11269
2019-04-21T16:39:57.127Z,9738
2019-04-21T16:41:00.951Z,8629
2019-04-21T16:41:58.394Z,8311
2019-04-21T16:42:58.417Z,9430
2019-04-21T16:43:58.868Z,7601
2019-04-21T16:44:58.798Z,5310
2019-04-21T16:45:59.142Z,7735
2019-04-21T16:47:17.213Z,9499
2019-04-21T16:47:59.073Z,8115
2019-04-21T16:48:57.854Z,5784
2019-04-21T16:49:58.745Z,5987
2019-04-21T16:50:57.767Z,6465
2019-04-21T16:51:58.055Z,4547
2019-04-21T16:52:58.109Z,4360
2019-04-21T16:53:57.919Z,6232
2019-04-21T16:54:58.291Z,5928
2019-04-21T16:55:59.316Z,5285
2019-04-21T16:56:58.062Z,5387
2019-04-21T16:58:07.346Z,5303
2019-04-21T16:58:59.112Z,5163
2019-04-21T17:00:00.227Z,5775
2019-04-21T17:01:03.195Z,7000
2019-04-21T17:02:00.560Z,7097
2019-04-21T17:02:58.762Z,6601